createdAt,value
2023-02-23T00:02:14.594Z,29.90
2023-02-23T00:04:47.551Z,29.93
2023-02-23T00:07:20.811Z,30.77
2023-02-23T00:10:00.217Z,31.07
2023-02-23T00:12:29.022Z,30.43
2023-02-23T00:14:56.733Z,33.37
2023-02-23T00:17:25.074Z,33.23
2023-02-23T00:19:57.467Z,32.47
2023-02-23T00:22:30.399Z,29.67
2023-02-23T00:24:58.230Z,30.13
2023-02-23T00:27:26.381Z,31.07
2023-02-23T00:29:54.661Z,33.73
2023-02-23T00:32:23.244Z,30.40
2023-02-23T00:34:51.093Z,30.43
2023-02-23T00:37:20.204Z,32.13
2023-02-23T00:39:47.672Z,31.53
2023-02-23T00:42:16.466Z,31.27
2023-02-23T00:44:44.040Z,30.67
2023-02-23T00:47:11.866Z,31.97
2023-02-23T00:49:39.477Z,31.10
2023-02-23T00:52:07.020Z,30.80
2023-02-23T00:54:34.736Z,30.97
2023-02-23T00:57:02.318Z,32.30
2023-02-23T00:59:29.866Z,32.00
2023-02-23T01:01:57.755Z,35.00
2023-02-23T01:04:25.324Z,35.47
2023-02-23T01:06:52.636Z,34.43
2023-02-23T01:09:28.237Z,30.33
2023-02-23T01:11:57.380Z,33.03
2023-02-23T01:14:24.713Z,33.17
2023-02-23T01:16:51.967Z,32.03
2023-02-23T01:19:19.452Z,31.07
2023-02-23T01:21:46.843Z,30.40
2023-02-23T01:24:14.577Z,30.97
2023-02-23T01:26:45.506Z,32.80
2023-02-23T01:29:16.959Z,33.20
2023-02-23T01:31:48.353Z,32.23
2023-02-23T01:34:16.159Z,34.80
2023-02-23T01:36:44.787Z,33.93
2023-02-23T01:39:17.549Z,32.03
2023-02-23T01:41:45.743Z,32.97
2023-02-23T01:44:15.758Z,30.60
2023-02-23T01:46:46.189Z,31.07
2023-02-23T01:49:27.526Z,32.07
2023-02-23T01:52:10.986Z,33.43
2023-02-23T01:54:44.357Z,33.33
2023-02-23T01:57:15.228Z,32.87
2023-02-23T01:59:46.289Z,32.30
2023-02-23T02:02:16.294Z,32.33
2023-02-23T02:04:44.915Z,31.70
2023-02-23T02:07:20.215Z,32.37
2023-02-23T02:10:08.092Z,34.63
2023-02-23T02:12:35.670Z,35.03
2023-02-23T02:15:07.369Z,32.87
2023-02-23T02:18:03.559Z,33.83
2023-02-23T02:20:58.055Z,36.43
2023-02-23T02:23:27.638Z,35.83
2023-02-23T02:26:18.034Z,36.33
2023-02-23T02:29:15.150Z,32.83
2023-02-23T02:32:13.200Z,34.77
2023-02-23T02:35:07.675Z,33.67
2023-02-23T02:37:50.935Z,30.60
2023-02-23T02:40:53.611Z,28.13
2023-02-23T02:43:33.751Z,27.40
2023-02-23T02:46:28.979Z,31.73
2023-02-23T02:49:17.601Z,33.57
2023-02-23T02:52:05.383Z,32.10
2023-02-23T02:54:42.629Z,32.83
2023-02-23T02:57:12.976Z,32.27
2023-02-23T03:00:05.052Z,34.60
2023-02-23T03:02:55.619Z,35.07
2023-02-23T03:05:53.021Z,34.80
2023-02-23T03:09:04.852Z,33.30
2023-02-23T03:11:58.725Z,30.40
2023-02-23T03:19:35.774Z,28.97
2023-02-23T03:22:44.954Z,34.40
2023-02-23T03:25:50.257Z,32.00
2023-02-23T03:28:43.568Z,30.80
2023-02-23T03:31:48.853Z,32.57
2023-02-23T03:34:47.330Z,32.93
2023-02-23T03:37:45.524Z,30.27
2023-02-23T03:40:46.618Z,34.20
2023-02-23T03:43:45.031Z,32.77
2023-02-23T03:46:34.341Z,31.43
2023-02-23T03:49:25.682Z,35.30
2023-02-23T03:52:21.577Z,31.17
2023-02-23T03:55:22.613Z,29.80
2023-02-23T03:58:13.622Z,30.13
2023-02-23T04:01:06.000Z,31.60
2023-02-23T04:03:57.435Z,28.23
2023-02-23T04:06:47.889Z,28.53
2023-02-23T04:09:33.612Z,32.70
2023-02-23T04:12:57.572Z,30.30
2023-02-23T04:15:33.942Z,31.17
2023-02-23T04:18:04.636Z,32.10
2023-02-23T04:20:32.356Z,31.83
2023-02-23T04:22:59.633Z,31.17
2023-02-23T04:25:27.051Z,28.20
2023-02-23T04:27:54.244Z,32.07
2023-02-23T04:30:25.360Z,30.07
2023-02-23T04:32:53.201Z,30.80
2023-02-23T04:35:21.186Z,33.40
2023-02-23T04:37:48.592Z,30.73
2023-02-23T04:40:16.042Z,32.63
2023-02-23T04:42:43.386Z,33.80
2023-02-23T04:45:11.242Z,33.53
2023-02-23T04:47:38.711Z,33.00
2023-02-23T04:54:05.940Z,34.73
2023-02-23T04:56:33.339Z,35.10
2023-02-23T04:59:00.555Z,33.87
2023-02-23T05:01:28.925Z,35.40
2023-02-23T05:03:56.302Z,36.23
2023-02-23T05:06:23.605Z,36.97
2023-02-23T05:08:50.886Z,34.87
2023-02-23T05:11:18.609Z,36.87
2023-02-23T05:13:45.887Z,36.03
2023-02-23T05:16:13.228Z,37.90
2023-02-23T05:18:40.523Z,36.13
2023-02-23T05:21:09.629Z,36.33
2023-02-23T05:23:37.889Z,35.40
2023-02-23T05:26:10.117Z,37.17
2023-02-23T05:28:40.935Z,34.63
2023-02-23T05:31:09.326Z,38.23
2023-02-23T05:33:45.882Z,35.23
2023-02-23T05:36:19.338Z,37.00
2023-02-23T05:38:47.987Z,36.40
2023-02-23T05:41:23.218Z,37.10
2023-02-23T05:43:53.754Z,36.57
2023-02-23T05:46:25.181Z,36.83
2023-02-23T05:49:01.313Z,36.17
2023-02-23T05:51:32.046Z,37.53
2023-02-23T05:53:59.288Z,35.70
2023-02-23T05:56:27.507Z,34.63
2023-02-23T05:58:58.155Z,37.10
2023-02-23T06:01:27.369Z,38.03
2023-02-23T06:03:55.548Z,34.33
2023-02-23T06:06:25.595Z,35.93
2023-02-23T06:08:54.175Z,37.30
2023-02-23T06:11:21.984Z,36.87
2023-02-23T06:13:49.975Z,37.37
2023-02-23T06:16:17.438Z,38.40
2023-02-23T06:18:45.117Z,39.20
2023-02-23T06:21:12.477Z,37.50
2023-02-23T06:23:39.749Z,36.67
2023-02-23T06:26:07.997Z,36.20
2023-02-23T06:28:35.661Z,37.03
2023-02-23T06:31:03.185Z,36.40
2023-02-23T06:33:30.422Z,35.53
2023-02-23T06:35:57.664Z,38.53
2023-02-23T06:38:25.313Z,38.07
2023-02-23T06:40:52.692Z,38.67
2023-02-23T06:43:22.165Z,38.73
2023-02-23T06:45:50.679Z,35.63
2023-02-23T06:48:17.990Z,36.90
2023-02-23T06:50:45.170Z,34.53
2023-02-23T06:53:12.557Z,34.40
2023-02-23T06:55:39.736Z,35.17
2023-02-23T06:58:08.223Z,31.73
2023-02-23T07:00:35.479Z,32.20
2023-02-23T07:03:02.663Z,35.53
2023-02-23T07:05:29.908Z,35.60
2023-02-23T07:07:57.199Z,39.90
2023-02-23T07:10:24.837Z,38.83
2023-02-23T07:12:54.822Z,38.33
2023-02-23T07:15:22.274Z,37.37
2023-02-23T07:17:49.525Z,36.53
2023-02-23T07:20:17.025Z,40.80
2023-02-23T07:22:44.677Z,37.17
2023-02-23T07:25:12.433Z,38.70
2023-02-23T07:27:39.956Z,38.23
2023-02-23T07:30:08.482Z,38.60
2023-02-23T07:32:35.931Z,37.50
2023-02-23T07:35:04.887Z,37.00
2023-02-23T07:37:32.102Z,37.83
2023-02-23T07:41:21.965Z,36.53
2023-02-23T07:43:49.665Z,36.40
2023-02-23T07:46:17.563Z,37.13
2023-02-23T07:48:46.412Z,37.20
2023-02-23T07:51:15.942Z,39.00
2023-02-23T07:53:44.488Z,37.17
2023-02-23T07:56:12.921Z,41.30
2023-02-23T07:58:42.590Z,37.40
2023-02-23T08:01:11.397Z,37.87
2023-02-23T08:03:41.441Z,38.97
2023-02-23T08:06:08.729Z,37.77
2023-02-23T08:08:35.899Z,39.37
2023-02-23T08:11:05.775Z,37.40
2023-02-23T08:13:34.205Z,36.10
2023-02-23T08:16:01.474Z,34.80
2023-02-23T08:18:28.836Z,38.30
2023-02-23T08:21:04.659Z,37.33
2023-02-23T08:23:35.740Z,35.77
2023-02-23T08:26:04.506Z,35.43
2023-02-23T08:28:32.325Z,36.30
2023-02-23T08:31:02.492Z,34.47
2023-02-23T08:33:31.844Z,34.97
2023-02-23T08:36:02.836Z,35.13
2023-02-23T08:38:30.777Z,36.53
2023-02-23T08:41:01.869Z,36.30
2023-02-23T08:43:30.208Z,35.70
2023-02-23T08:45:57.740Z,36.37
2023-02-23T08:48:25.784Z,33.73
2023-02-23T08:51:00.157Z,34.70
2023-02-23T08:53:29.939Z,33.03
2023-02-23T08:55:59.607Z,34.20
2023-02-23T08:58:28.623Z,33.50
2023-02-23T09:00:56.918Z,33.53
2023-02-23T09:03:26.505Z,30.10
2023-02-23T09:10:46.309Z,32.47
2023-02-23T09:13:14.286Z,31.60
2023-02-23T09:15:42.687Z,33.83
2023-02-23T09:18:19.324Z,33.47
2023-02-23T09:20:49.656Z,31.67
2023-02-23T09:23:17.222Z,30.73
2023-02-23T09:25:46.145Z,31.33
2023-02-23T09:28:20.332Z,30.57
2023-02-23T09:30:48.948Z,28.83
2023-02-23T09:33:17.555Z,28.27
2023-02-23T09:35:45.006Z,29.33
2023-02-23T09:38:12.456Z,28.60
2023-02-23T09:40:56.101Z,28.40
2023-02-23T09:43:39.081Z,28.47
2023-02-23T09:46:58.765Z,29.33
2023-02-23T09:50:16.879Z,27.07
2023-02-23T09:52:53.753Z,25.70
2023-02-23T09:55:21.399Z,27.60
2023-02-23T09:57:51.418Z,27.17
2023-02-23T10:00:29.910Z,25.10
2023-02-23T10:03:30.574Z,25.57
2023-02-23T10:06:06.865Z,25.43
2023-02-23T10:09:19.582Z,26.47
2023-02-23T10:12:00.399Z,25.47
2023-02-23T10:15:09.566Z,26.90
2023-02-23T10:18:12.198Z,24.23
2023-02-23T10:21:40.201Z,24.43
2023-02-23T10:24:20.272Z,22.47
2023-02-23T10:26:54.405Z,23.33
2023-02-23T10:29:37.574Z,21.87
2023-02-23T10:32:13.320Z,21.73
2023-02-23T10:34:42.248Z,20.10
2023-02-23T10:37:13.548Z,20.23
2023-02-23T10:39:42.505Z,20.27
2023-02-23T10:42:19.718Z,20.10
2023-02-23T10:44:47.685Z,20.37
2023-02-23T10:47:21.715Z,21.40
2023-02-23T10:49:55.719Z,20.47
2023-02-23T10:52:43.951Z,19.97
2023-02-23T10:55:30.477Z,19.93
2023-02-23T10:58:20.355Z,21.30
2023-02-23T11:01:05.512Z,18.43
2023-02-23T11:03:46.911Z,20.37
2023-02-23T11:06:43.208Z,19.10
2023-02-23T11:09:41.853Z,20.37
2023-02-23T11:12:35.767Z,19.83
2023-02-23T11:15:20.766Z,20.50
2023-02-23T11:22:55.684Z,20.10
2023-02-23T11:25:30.444Z,18.53
2023-02-23T11:27:59.033Z,18.73
2023-02-23T11:30:38.152Z,19.63
2023-02-23T11:33:11.148Z,19.57
2023-02-23T11:35:39.274Z,19.23
2023-02-23T11:38:28.100Z,19.63
2023-02-23T11:41:18.722Z,19.47
2023-02-23T11:43:52.355Z,17.77
2023-02-23T11:46:23.013Z,17.80
2023-02-23T11:49:04.559Z,18.17
2023-02-23T11:51:46.415Z,17.10
2023-02-23T11:54:31.394Z,17.73
2023-02-23T11:57:02.638Z,16.90
2023-02-23T11:59:40.272Z,17.07
2023-02-23T12:02:31.996Z,17.20
2023-02-23T12:05:17.323Z,16.50
2023-02-23T12:07:57.130Z,16.97
2023-02-23T12:10:42.688Z,15.93
2023-02-23T12:13:32.631Z,14.90
2023-02-23T12:16:11.334Z,15.60
2023-02-23T12:19:06.730Z,15.30
2023-02-23T12:21:44.511Z,16.23
2023-02-23T12:24:28.705Z,15.40
2023-02-23T12:27:14.681Z,16.37
2023-02-23T12:30:18.289Z,16.83
2023-02-23T12:33:19.227Z,18.17
2023-02-23T12:36:43.892Z,20.23
2023-02-23T12:39:33.400Z,21.57
2023-02-23T12:42:23.155Z,22.30
2023-02-23T12:44:59.031Z,21.87
2023-02-23T12:47:50.793Z,21.17
2023-02-23T12:50:39.416Z,23.67
2023-02-23T12:53:28.787Z,22.53
2023-02-23T12:56:12.706Z,21.03
2023-02-23T12:59:33.061Z,22.23
2023-02-23T13:02:12.912Z,21.30
2023-02-23T13:05:08.136Z,23.43
2023-02-23T13:08:22.347Z,23.50
2023-02-23T13:11:10.902Z,24.33
2023-02-23T13:14:04.973Z,23.33
2023-02-23T13:17:00.758Z,23.00
2023-02-23T13:19:42.697Z,24.53
2023-02-23T13:22:24.425Z,22.77
2023-02-23T13:24:56.105Z,24.73
2023-02-23T13:27:50.492Z,24.93
2023-02-23T13:30:20.793Z,23.50
2023-02-23T13:32:48.839Z,23.67
2023-02-23T13:35:21.926Z,22.60
2023-02-23T13:38:13.073Z,21.80
2023-02-23T13:40:55.386Z,21.27
2023-02-23T13:43:45.801Z,21.50
2023-02-23T13:46:43.835Z,21.03
2023-02-23T13:49:42.249Z,19.47
2023-02-23T13:52:28.078Z,19.97
2023-02-23T13:55:03.880Z,22.07
2023-02-23T13:57:33.345Z,21.37
2023-02-23T14:00:01.521Z,20.23
2023-02-23T14:02:42.272Z,20.13
2023-02-23T14:05:27.914Z,20.33
2023-02-23T14:08:05.669Z,20.47
2023-02-23T14:10:43.989Z,19.63
2023-02-23T14:13:14.708Z,19.33
2023-02-23T14:15:53.862Z,19.03
2023-02-23T14:22:33.547Z,17.40
2023-02-23T14:25:38.228Z,17.63
2023-02-23T14:28:42.210Z,14.93
2023-02-23T14:31:26.101Z,13.77
2023-02-23T14:34:44.284Z,12.90
2023-02-23T14:37:43.143Z,12.30
2023-02-23T14:40:25.540Z,13.43
2023-02-23T14:43:01.091Z,13.83
2023-02-23T14:45:33.234Z,15.37
2023-02-23T14:48:10.517Z,14.30
2023-02-23T14:50:39.340Z,13.40
2023-02-23T14:53:18.648Z,12.93
2023-02-23T14:55:46.766Z,14.37
2023-02-23T14:58:33.710Z,16.10
2023-02-23T15:01:01.213Z,15.53
2023-02-23T15:03:28.802Z,15.57
2023-02-23T15:06:01.113Z,13.67
2023-02-23T15:08:35.527Z,13.83
2023-02-23T15:11:12.214Z,14.63
2023-02-23T15:13:48.259Z,14.40
2023-02-23T15:16:35.269Z,14.73
2023-02-23T15:19:07.753Z,14.73
2023-02-23T15:21:37.140Z,15.77
2023-02-23T15:24:13.782Z,15.30
2023-02-23T15:26:41.888Z,15.37
2023-02-23T15:29:14.844Z,16.53
2023-02-23T15:31:51.400Z,16.23
2023-02-23T15:34:26.679Z,15.87
2023-02-23T15:37:11.621Z,15.77
2023-02-23T15:40:00.835Z,13.63
2023-02-23T15:42:45.767Z,14.10
2023-02-23T15:45:43.760Z,14.67
2023-02-23T15:48:22.946Z,14.27
2023-02-23T15:51:00.330Z,13.73
2023-02-23T15:53:38.982Z,14.03
2023-02-23T15:56:29.402Z,13.57
2023-02-23T15:59:13.645Z,13.10
2023-02-23T16:01:47.041Z,13.13
2023-02-23T16:04:19.108Z,12.03
2023-02-23T16:07:16.365Z,11.43
2023-02-23T16:10:26.293Z,12.03
2023-02-23T16:12:55.135Z,12.67
2023-02-23T16:15:35.575Z,11.50
2023-02-23T16:18:06.811Z,11.40
2023-02-23T16:20:42.772Z,11.67
2023-02-23T16:23:37.270Z,10.33
2023-02-23T16:26:46.475Z,11.20
2023-02-23T16:29:27.929Z,10.73
2023-02-23T16:32:03.636Z,11.00
2023-02-23T16:34:37.488Z,10.50
2023-02-23T16:37:25.572Z,11.03
2023-02-23T16:39:54.058Z,10.87
2023-02-23T16:42:33.836Z,10.37
2023-02-23T16:45:02.175Z,9.77
2023-02-23T16:47:36.604Z,9.83
2023-02-23T16:50:20.345Z,9.07
2023-02-23T16:52:53.442Z,9.27
2023-02-23T16:55:27.243Z,8.77
2023-02-23T16:58:03.361Z,8.77
2023-02-23T17:00:33.632Z,8.20
2023-02-23T17:03:01.521Z,8.93
2023-02-23T17:05:32.664Z,8.53
2023-02-23T17:07:59.933Z,8.60
2023-02-23T17:10:35.799Z,8.87
2023-02-23T17:13:08.330Z,8.53
2023-02-23T17:15:42.287Z,8.70
2023-02-23T17:18:09.548Z,8.63
2023-02-23T17:20:36.792Z,8.93
2023-02-23T17:23:04.571Z,8.50
2023-02-23T17:25:32.064Z,8.70
2023-02-23T17:28:00.698Z,8.90
2023-02-23T17:30:29.296Z,8.30
2023-02-23T17:32:59.208Z,8.17
2023-02-23T17:35:26.843Z,8.53
2023-02-23T17:37:54.738Z,7.87
2023-02-23T17:40:31.372Z,7.20
2023-02-23T17:43:00.820Z,6.90
2023-02-23T17:45:28.889Z,7.70
2023-02-23T17:47:57.297Z,7.30
2023-02-23T17:50:27.226Z,7.10
2023-02-23T17:52:56.509Z,7.13
2023-02-23T17:55:25.391Z,6.40
2023-02-23T17:57:52.933Z,6.97
2023-02-23T18:00:21.059Z,6.30
2023-02-23T18:02:48.735Z,6.40
2023-02-23T18:05:16.340Z,6.50
2023-02-23T18:07:45.061Z,6.20
2023-02-23T18:10:14.743Z,7.40
2023-02-23T18:12:42.214Z,6.17
2023-02-23T18:15:10.602Z,6.33
2023-02-23T18:17:54.771Z,6.50
2023-02-23T18:20:22.212Z,6.50
2023-02-23T18:22:49.731Z,6.47
2023-02-23T18:25:30.547Z,6.63
2023-02-23T18:27:58.835Z,6.47
2023-02-23T18:30:27.395Z,6.30
2023-02-23T18:33:01.029Z,6.43
2023-02-23T18:35:28.659Z,6.60
2023-02-23T18:37:56.055Z,6.93
2023-02-23T18:40:24.030Z,6.90
2023-02-23T18:42:51.723Z,6.77
2023-02-23T18:45:19.122Z,7.00
2023-02-23T18:47:46.329Z,6.60
2023-02-23T18:50:19.493Z,6.53
2023-02-23T18:52:51.099Z,7.00
2023-02-23T19:00:14.631Z,5.33
2023-02-23T19:02:44.152Z,6.83
2023-02-23T19:05:13.189Z,6.93
2023-02-23T19:07:41.744Z,6.17
2023-02-23T19:10:12.469Z,6.70
2023-02-23T19:12:40.600Z,7.27
2023-02-23T19:15:11.222Z,7.07
2023-02-23T19:17:38.784Z,8.07
2023-02-23T19:20:14.289Z,6.93
2023-02-23T19:22:42.443Z,7.17
2023-02-23T19:25:14.918Z,7.37
2023-02-23T19:27:43.180Z,6.97
2023-02-23T19:30:11.606Z,7.60
2023-02-23T19:32:40.058Z,7.87
2023-02-23T19:35:11.404Z,8.67
2023-02-23T19:37:40.298Z,7.23
2023-02-23T19:44:17.622Z,7.30
2023-02-23T19:46:44.898Z,7.47
2023-02-23T19:49:13.107Z,7.33
2023-02-23T19:51:40.379Z,7.40
2023-02-23T19:54:07.763Z,8.30
2023-02-23T19:56:38.265Z,8.80
2023-02-23T19:59:06.341Z,9.13
2023-02-23T20:01:34.067Z,9.60
2023-02-23T20:08:01.321Z,9.00
2023-02-23T20:14:39.676Z,10.00
2023-02-23T20:17:09.636Z,10.87
2023-02-23T20:19:36.822Z,9.97
2023-02-23T20:22:04.305Z,6.20
2023-02-23T20:24:31.560Z,4.90
2023-02-23T20:26:59.505Z,5.00
2023-02-23T20:29:28.265Z,4.33
2023-02-23T20:31:55.951Z,4.13
2023-02-23T20:34:24.988Z,4.70
2023-02-23T20:36:53.913Z,4.93
2023-02-23T20:39:22.496Z,4.57
2023-02-23T20:41:53.935Z,4.47
2023-02-23T20:44:23.979Z,4.57
2023-02-23T20:46:51.468Z,5.20
2023-02-23T20:49:38.086Z,4.67
2023-02-23T20:52:06.219Z,4.80
2023-02-23T20:54:33.677Z,4.60
2023-02-23T21:01:22.854Z,4.50
2023-02-23T21:04:29.286Z,4.03
2023-02-23T21:06:56.427Z,4.27
2023-02-23T21:09:23.630Z,4.00
2023-02-23T21:11:52.085Z,4.07
2023-02-23T21:14:19.355Z,4.13
2023-02-23T21:16:46.756Z,3.83
2023-02-23T21:19:32.759Z,4.00
2023-02-23T21:22:01.810Z,4.27
2023-02-23T21:24:30.370Z,4.00
2023-02-23T21:26:57.542Z,3.93
2023-02-23T21:29:24.869Z,4.20
2023-02-23T21:31:52.305Z,4.13
2023-02-23T21:34:20.050Z,4.50
2023-02-23T21:40:47.372Z,4.57
2023-02-23T21:43:14.659Z,3.97
2023-02-23T21:45:46.705Z,4.20
2023-02-23T21:48:14.509Z,3.83
2023-02-23T21:50:42.044Z,3.50
2023-02-23T21:53:28.062Z,3.50
2023-02-23T21:55:55.377Z,3.43
2023-02-23T21:58:23.329Z,3.50
2023-02-23T22:00:50.813Z,3.80
2023-02-23T22:03:18.108Z,3.80
2023-02-23T22:05:45.718Z,3.47
2023-02-23T22:08:16.066Z,3.47
2023-02-23T22:10:43.544Z,3.70
2023-02-23T22:13:10.742Z,3.33
2023-02-23T22:15:38.407Z,3.20
2023-02-23T22:18:05.818Z,3.60
2023-02-23T22:20:33.058Z,4.23
2023-02-23T22:23:00.363Z,3.13
2023-02-23T22:25:27.626Z,3.23
2023-02-23T22:27:54.873Z,3.43
2023-02-23T22:30:23.550Z,3.67
2023-02-23T22:32:53.604Z,3.80
2023-02-23T22:35:20.860Z,3.90
2023-02-23T22:37:48.392Z,3.77
2023-02-23T22:40:18.338Z,4.27
2023-02-23T22:42:49.750Z,3.80
2023-02-23T22:45:18.330Z,4.60
2023-02-23T22:47:45.682Z,4.07
2023-02-23T22:50:18.203Z,3.77
2023-02-23T22:52:46.957Z,4.00
2023-02-23T22:55:16.431Z,4.00
2023-02-23T22:57:44.114Z,4.67
2023-02-23T23:00:15.102Z,4.03
2023-02-23T23:02:42.510Z,4.77
2023-02-23T23:05:10.076Z,4.53
2023-02-23T23:07:37.340Z,4.67
2023-02-23T23:10:05.957Z,4.73
2023-02-23T23:12:34.792Z,4.67
2023-02-23T23:15:03.990Z,4.57
2023-02-23T23:17:32.495Z,4.10
2023-02-23T23:20:11.459Z,4.40
2023-02-23T23:22:39.100Z,4.70
2023-02-23T23:25:14.804Z,3.63
2023-02-23T23:27:45.090Z,4.37
2023-02-23T23:30:13.760Z,4.20
2023-02-23T23:32:41.146Z,3.40
2023-02-23T23:35:11.282Z,4.20
2023-02-23T23:37:41.769Z,3.70
2023-02-23T23:40:16.117Z,4.47
2023-02-23T23:42:46.743Z,3.50
2023-02-23T23:45:18.237Z,3.90
2023-02-23T23:47:46.816Z,4.20
2023-02-23T23:50:16.698Z,3.90
2023-02-23T23:52:45.397Z,4.03
2023-02-23T23:55:14.891Z,3.20
2023-02-23T23:57:42.983Z,4.13
